Time;durP1;ratioP1;P1;durP2;ratioP2;P2;SDS_P1;SDS_P2;PMS_P1;PMS_P2;Temp;Humidity;BMP_temperature;BMP_pressure;BME280_temperature;BME280_humidity;BME280_pressure;Samples;Min_cycle;Max_cycle;Signal;HPM_P1;HPM_P2
2023/02/22 00:00:58;;;;;;;33.53;31.02;;;;;;;9.75;100.00;100841.94;5059706;28;20049;-79
2023/02/22 00:03:27;;;;;;;36.88;34.33;;;;;;;10.12;100.00;100841.66;5057473;28;20110;-79
2023/02/22 00:05:57;;;;;;;36.75;33.92;;;;;;;9.56;100.00;100842.63;5059205;28;20098;-79
2023/02/22 00:08:29;;;;;;;42.33;39.50;;;;;;;9.95;100.00;100842.00;5058410;28;20045;-79
2023/02/22 00:10:56;;;;;;;32.17;29.50;;;;;;;9.51;100.00;100847.72;5058407;28;20060;-79
2023/02/22 00:13:24;;;;;;;37.80;35.00;;;;;;;9.49;100.00;100842.59;5059123;28;20049;-79
2023/02/22 00:15:51;;;;;;;31.55;28.70;;;;;;;9.44;100.00;100847.69;5059033;28;20048;-79
2023/02/22 00:18:19;;;;;;;39.63;36.55;;;;;;;9.61;100.00;100845.53;5058424;28;20506;-79
2023/02/22 00:20:45;;;;;;;29.50;26.83;;;;;;;9.61;100.00;100850.81;5058562;28;20102;-79
2023/02/22 00:23:15;;;;;;;33.88;31.17;;;;;;;9.73;100.00;100857.22;5058200;28;20045;-79
2023/02/22 00:25:42;;;;;;;34.05;31.50;;;;;;;9.77;100.00;100853.16;5058611;28;20114;-79
2023/02/22 00:28:08;;;;;;;33.13;30.60;;;;;;;10.00;100.00;100862.63;5058558;28;20072;-79
2023/02/22 00:30:36;;;;;;;32.20;29.65;;;;;;;9.64;100.00;100858.38;5059035;28;20049;-79
2023/02/22 00:33:04;;;;;;;33.22;30.65;;;;;;;9.60;100.00;100857.16;5058413;28;20053;-79
2023/02/22 00:35:32;;;;;;;39.63;36.95;;;;;;;9.69;100.00;100849.84;5059052;28;20041;-79
2023/02/22 00:38:00;;;;;;;38.42;35.50;;;;;;;9.53;100.00;100850.97;5058010;28;20045;-79
2023/02/22 00:40:30;;;;;;;37.95;35.17;;;;;;;9.72;100.00;100844.97;5055269;28;20048;-79
2023/02/22 00:42:57;;;;;;;35.30;32.53;;;;;;;9.81;100.00;100845.63;5062588;28;20044;-79
2023/02/22 00:45:26;;;;;;;35.58;32.97;;;;;;;9.85;100.00;100845.03;5062002;28;20052;-79
2023/02/22 00:47:55;;;;;;;34.97;32.47;;;;;;;9.74;100.00;100842.94;5061651;28;20529;-79
2023/02/22 00:50:23;;;;;;;38.38;35.33;;;;;;;9.55;100.00;100839.16;5059989;28;20053;-79
2023/02/22 00:52:51;;;;;;;39.13;36.20;;;;;;;9.69;100.00;100845.38;5061293;28;20049;-79
2023/02/22 00:55:21;;;;;;;31.40;28.70;;;;;;;9.82;100.00;100850.72;5062241;28;20056;-79
2023/02/22 00:57:48;;;;;;;39.45;36.00;;;;;;;9.42;100.00;100839.09;5062283;28;20053;-79
2023/02/22 01:00:19;;;;;;;41.97;38.90;;;;;;;9.74;100.00;100847.41;5060810;28;20427;-79
2023/02/22 01:02:48;;;;;;;43.00;39.80;;;;;;;9.74;100.00;100842.09;5062198;28;20049;-79
2023/02/22 01:05:18;;;;;;;35.15;32.55;;;;;;;9.75;100.00;100841.94;5062365;28;20059;-78
2023/02/22 01:07:46;;;;;;;34.92;32.42;;;;;;;9.15;100.00;100841.56;5060914;28;20490;-79
2023/02/22 01:10:13;;;;;;;33.13;30.60;;;;;;;9.41;100.00;100842.78;5061076;28;20056;-79
2023/02/22 01:12:41;;;;;;;40.50;37.60;;;;;;;9.76;100.00;100845.41;5061095;28;20072;-79
2023/02/22 01:15:11;;;;;;;41.33;38.47;;;;;;;9.47;100.00;100838.50;5061001;28;20139;-79
2023/02/22 01:17:40;;;;;;;45.53;42.63;;;;;;;9.57;100.00;100845.09;5057911;28;20099;-79
2023/02/22 01:20:11;;;;;;;50.00;46.55;;;;;;;9.45;100.00;100845.84;5061142;28;20052;-79
2023/02/22 01:22:41;;;;;;;56.70;52.42;;;;;;;9.42;100.00;100849.72;5060556;28;20430;-79
2023/02/22 01:25:09;;;;;;;41.55;38.47;;;;;;;9.45;100.00;100846.66;5060649;28;20049;-79
2023/02/22 01:27:36;;;;;;;39.95;36.45;;;;;;;9.15;100.00;100848.72;5060899;28;20417;-79
2023/02/22 01:30:07;;;;;;;42.67;39.60;;;;;;;9.16;100.00;100851.16;5060724;28;20057;-79
2023/02/22 01:32:34;;;;;;;39.58;36.42;;;;;;;9.09;100.00;100838.88;5057833;28;20056;-79
2023/02/22 01:35:03;;;;;;;50.78;47.35;;;;;;;9.43;100.00;100838.06;5060653;28;20053;-79
2023/02/22 01:37:30;;;;;;;36.85;33.90;;;;;;;9.46;100.00;100843.00;5061163;28;20044;-79
2023/02/22 01:39:59;;;;;;;34.33;31.75;;;;;;;9.45;100.00;100836.06;5060580;28;20048;-79
2023/02/22 01:42:25;;;;;;;35.35;32.83;;;;;;;9.64;100.00;100840.63;5059030;28;20072;-79
2023/02/22 01:45:26;;;;;;;51.22;48.30;;;;;;;9.82;100.00;100836.66;5059521;28;20568;-79
2023/02/22 01:47:54;;;;;;;34.95;32.45;;;;;;;9.86;100.00;100833.41;5060848;28;20052;-79
2023/02/22 01:50:21;;;;;;;31.80;29.20;;;;;;;9.63;100.00;100832.91;5061339;28;20131;-79
2023/02/22 01:52:49;;;;;;;33.38;30.67;;;;;;;9.59;100.00;100834.28;5057998;28;20139;-79
2023/02/22 01:55:18;;;;;;;41.10;38.10;;;;;;;9.48;100.00;100840.97;5060757;28;20041;-79
2023/02/22 01:57:45;;;;;;;40.50;37.47;;;;;;;9.53;100.00;100841.22;5060531;28;20052;-79
2023/02/22 02:00:18;;;;;;;40.10;36.40;;;;;;;9.47;100.00;100839.34;5060353;28;20052;-79
2023/02/22 02:02:51;;;;;;;39.35;36.75;;;;;;;9.33;100.00;100837.63;5060455;28;20053;-79
2023/02/22 02:05:18;;;;;;;;;;;;;;;9.24;100.00;100842.25;5062023;28;20086;-79
2023/02/22 02:07:45;;;;;;;36.78;33.88;;;;;;;9.18;100.00;100838.53;5058837;28;19920;-79
2023/02/22 02:10:15;;;;;;;37.78;34.70;;;;;;;9.24;100.00;100844.91;5058803;28;20106;-79
2023/02/22 02:12:46;;;;;;;46.47;42.35;;;;;;;9.28;100.00;100842.69;5059078;28;20037;-78
2023/02/22 02:15:18;;;;;;;43.47;40.50;;;;;;;9.07;100.00;100843.56;5060313;28;20486;-79
2023/02/22 02:17:45;;;;;;;46.70;43.33;;;;;;;9.01;100.00;100846.97;5056807;28;20049;-79
2023/02/22 02:20:19;;;;;;;38.83;35.80;;;;;;;8.93;100.00;100846.09;5059313;28;20049;-79
2023/02/22 02:22:55;;;;;;;45.80;42.88;;;;;;;8.87;100.00;100838.13;5058134;28;20079;-79
2023/02/22 02:25:59;;;;;;;35.63;33.00;;;;;;;8.68;100.00;100850.16;5058614;28;20490;-79
2023/02/22 02:29:13;;;;;;;40.08;37.17;;;;;;;8.63;100.00;100849.94;5056095;28;20045;-79
2023/02/22 02:32:15;;;;;;;39.67;36.80;;;;;;;9.08;100.00;100850.50;5015752;28;20407;-79
2023/02/22 02:34:49;;;;;;;47.70;44.00;;;;;;;8.86;100.00;100844.41;5060697;28;20045;-79
2023/02/22 02:37:26;;;;;;;49.53;45.70;;;;;;;8.65;100.00;100847.88;5059176;28;20112;-78
2023/02/22 02:39:59;;;;;;;41.67;38.75;;;;;;;8.80;100.00;100840.69;5059159;28;20067;-79
2023/02/22 02:42:44;;;;;;;49.70;46.65;;;;;;;8.66;100.00;100846.91;5057023;28;20502;-79
2023/02/22 02:45:18;;;;;;;40.50;37.90;;;;;;;8.70;100.00;100843.66;5056629;28;20037;-79
2023/02/22 02:47:52;;;;;;;44.72;41.83;;;;;;;8.95;100.00;100844.06;5056509;28;20075;-79
2023/02/22 02:50:24;;;;;;;46.10;43.30;;;;;;;8.62;100.00;100848.28;5058605;28;20469;-78
2023/02/22 02:52:57;;;;;;;49.30;46.17;;;;;;;8.39;100.00;100853.75;5059425;28;20518;-79
2023/02/22 02:55:24;;;;;;;43.53;40.08;;;;;;;8.65;100.00;100856.69;5058324;28;20045;-78
2023/02/22 02:57:51;;;;;;;60.38;55.60;;;;;;;8.76;100.00;100849.22;5058100;28;20060;-78
2023/02/22 03:00:23;;;;;;;51.15;46.25;;;;;;;8.63;100.00;100865.81;5057901;28;20045;-79
2023/02/22 03:03:17;;;;;;;45.80;41.72;;;;;;;8.53;100.00;100862.63;5058676;28;20079;-79
2023/02/22 03:06:02;;;;;;;36.83;34.30;;;;;;;8.60;100.00;100863.53;5056235;28;20495;-79
2023/02/22 03:08:35;;;;;;;44.65;41.08;;;;;;;8.49;100.00;100865.66;5057260;28;20048;-79
2023/02/22 03:11:13;;;;;;;41.17;37.53;;;;;;;8.44;100.00;100869.88;5058295;28;20053;-79
2023/02/22 03:13:45;;;;;;;38.78;35.67;;;;;;;8.28;100.00;100878.84;5058232;28;20045;-79
2023/02/22 03:16:18;;;;;;;41.72;38.80;;;;;;;8.15;100.00;100881.34;5057706;28;20072;-78
2023/02/22 03:18:52;;;;;;;56.63;50.95;;;;;;;8.30;100.00;100878.69;5057056;28;20060;-79
2023/02/22 03:21:28;;;;;;;43.40;40.10;;;;;;;7.17;100.00;100874.50;5052453;28;20307;-79
2023/02/22 03:24:03;;;;;;;42.75;38.75;;;;;;;7.25;100.00;100885.81;5054132;28;20106;-79
2023/02/22 03:26:34;;;;;;;50.22;46.22;;;;;;;7.57;100.00;100884.69;5055873;28;20052;-79
2023/02/22 03:29:04;;;;;;;40.10;36.93;;;;;;;7.35;100.00;100880.28;5058004;28;20052;-79
2023/02/22 03:31:37;;;;;;;44.58;40.92;;;;;;;6.98;100.00;100875.84;5056971;28;20048;-78
2023/02/22 03:34:07;;;;;;;;;;;;;;;6.80;100.00;100884.06;5055481;28;20628;-78
2023/02/22 03:36:39;;;;;;;57.10;53.42;;;;;;;6.41;100.00;100887.63;5052257;28;19925;-79
2023/02/22 03:39:09;;;;;;;53.53;49.65;;;;;;;6.59;100.00;100885.53;5056393;28;20528;-78
2023/02/22 03:41:39;;;;;;;46.28;42.95;;;;;;;6.56;100.00;100899.09;5056510;28;20049;-79
2023/02/22 03:44:10;;;;;;;54.30;50.35;;;;;;;6.28;100.00;100892.69;5053527;28;20053;-79
2023/02/22 03:46:40;;;;;;;43.13;40.03;;;;;;;6.55;100.00;100896.63;5055445;28;20130;-79
2023/02/22 03:49:14;;;;;;;46.85;43.38;;;;;;;6.88;100.00;100889.31;5056327;28;20057;-78
2023/02/22 03:51:41;;;;;;;41.22;37.38;;;;;;;7.19;100.00;100889.19;5056420;28;20444;-78
2023/02/22 03:54:15;;;;;;;49.97;45.88;;;;;;;7.39;100.00;100894.78;5056155;28;20106;-78
2023/02/22 03:56:48;;;;;;;48.47;44.83;;;;;;;6.70;100.00;100892.25;5054269;28;20041;-79
2023/02/22 03:59:16;;;;;;;44.33;39.95;;;;;;;6.69;100.00;100882.69;5056146;28;20044;-79
2023/02/22 04:01:42;;;;;;;38.58;34.85;;;;;;;7.16;100.00;100894.00;5055004;28;20041;-79
2023/02/22 04:04:10;;;;;;;39.88;36.38;;;;;;;7.53;100.00;100894.00;5037494;28;20469;-79
2023/02/22 04:06:37;;;;;;;41.08;37.53;;;;;;;7.26;100.00;100892.78;5036633;28;20487;-79
2023/02/22 04:09:04;;;;;;;55.92;50.55;;;;;;;7.15;100.00;100892.38;5036740;28;20049;-79
2023/02/22 04:11:31;;;;;;;48.15;43.95;;;;;;;7.23;100.00;100893.13;5036901;28;20503;-78
2023/02/22 04:13:59;;;;;;;39.58;36.30;;;;;;;7.36;100.00;100884.59;5032225;28;20049;-79
2023/02/22 04:16:26;;;;;;;38.97;36.03;;;;;;;7.78;100.00;100899.81;5037706;28;20045;-79
2023/02/22 04:18:52;;;;;;;42.20;39.15;;;;;;;7.50;100.00;100897.00;5041603;28;20050;-79
2023/02/22 04:21:21;;;;;;;37.38;34.60;;;;;;;7.71;100.00;100896.25;5039628;28;20053;-79
2023/02/22 04:23:47;;;;;;;39.13;35.90;;;;;;;7.71;100.00;100901.53;5041341;28;20050;-79
2023/02/22 04:26:14;;;;;;;40.13;36.92;;;;;;;7.54;100.00;100894.81;5041159;28;20115;-78
2023/02/22 04:28:41;;;;;;;39.17;36.17;;;;;;;7.39;100.00;100902.72;5040742;28;20061;-79
2023/02/22 04:31:08;;;;;;;32.30;29.48;;;;;;;7.42;100.00;100899.72;5039443;28;20050;-78
2023/02/22 04:33:35;;;;;;;31.75;29.15;;;;;;;7.49;100.00;100895.34;5035175;28;20050;-79
2023/02/22 04:36:01;;;;;;;32.08;29.30;;;;;;;7.74;100.00;100898.53;5040608;28;20462;-79
2023/02/22 04:38:29;;;;;;;38.95;35.70;;;;;;;7.84;100.00;100900.06;5040760;28;20477;-79
2023/02/22 04:40:56;;;;;;;33.58;31.27;;;;;;;7.80;100.00;100910.19;5041019;28;20075;-80
2023/02/22 04:43:24;;;;;;;35.13;32.25;;;;;;;7.80;100.00;100902.28;5039093;28;20592;-79
2023/02/22 04:45:51;;;;;;;32.20;29.42;;;;;;;7.83;100.00;100901.09;5041338;28;20041;-79
2023/02/22 04:48:18;;;;;;;33.78;31.13;;;;;;;7.69;100.00;100900.91;5040003;28;20045;-78
2023/02/22 04:50:46;;;;;;;34.38;31.77;;;;;;;7.64;100.00;100905.09;5040244;28;20592;-78
2023/02/22 04:53:13;;;;;;;30.95;28.45;;;;;;;7.52;100.00;100902.91;5039988;28;20076;-79
2023/02/22 04:55:41;;;;;;;34.25;31.30;;;;;;;7.28;100.00;100903.16;5039489;28;20519;-79
2023/02/22 04:58:08;;;;;;;31.95;29.45;;;;;;;7.29;100.00;100912.72;5039460;28;20053;-78
2023/02/22 05:00:35;;;;;;;29.73;26.92;;;;;;;7.23;100.00;100903.72;5037744;28;20052;-79
2023/02/22 05:03:02;;;;;;;31.67;28.70;;;;;;;6.97;100.00;100901.44;5050153;28;20080;-79
2023/02/22 05:05:29;;;;;;;33.97;30.95;;;;;;;6.67;100.00;100905.78;5060872;28;20052;-79
2023/02/22 05:07:55;;;;;;;36.42;33.03;;;;;;;6.50;100.00;100914.81;5058815;28;20049;-79
2023/02/22 05:10:23;;;;;;;37.97;34.38;;;;;;;6.30;100.00;100911.78;5053911;28;20053;-78
2023/02/22 05:12:51;;;;;;;34.33;29.23;;;;;;;6.96;100.00;100912.16;5026696;28;20049;-78
2023/02/22 05:15:21;;;;;;;33.17;30.05;;;;;;;6.59;100.00;100916.38;5057183;28;20075;-78
2023/02/22 05:17:48;;;;;;;32.83;28.80;;;;;;;6.52;100.00;100918.91;5056919;28;20056;-79
2023/02/22 05:20:22;;;;;;;27.75;25.20;;;;;;;6.79;100.00;100925.50;5058466;28;20053;-78
2023/02/22 05:22:50;;;;;;;25.67;23.58;;;;;;;7.16;100.00;100913.31;5057187;28;20044;-79
2023/02/22 05:25:19;;;;;;;26.08;23.58;;;;;;;7.68;100.00;100920.41;5059185;28;20124;-79
2023/02/22 05:27:51;;;;;;;26.80;23.85;;;;;;;7.43;100.00;100917.19;5060154;28;20147;-79
2023/02/22 05:30:24;;;;;;;;;;;;;;;7.96;100.00;100923.25;5062506;28;20540;-78
2023/02/22 05:32:51;;;;;;;;;;;;;;;7.72;100.00;100921.72;5063426;28;19920;-79
2023/02/22 05:35:18;;;;;;;45.80;30.10;;;;;;;7.71;100.00;100925.34;5062644;28;19928;-78
2023/02/22 05:37:45;;;;;;;44.08;28.40;;;;;;;7.68;100.00;100925.69;5062200;28;20056;-78
2023/02/22 05:40:13;;;;;;;32.22;28.75;;;;;;;7.85;100.00;100930.81;5055157;28;20132;-78
2023/02/22 05:42:40;;;;;;;33.83;30.15;;;;;;;7.86;100.00;100935.91;5060056;28;20072;-79
2023/02/22 05:45:12;;;;;;;36.08;28.23;;;;;;;7.53;100.00;100940.72;5058900;28;20076;-79
2023/02/22 05:47:39;;;;;;;28.23;25.57;;;;;;;8.13;100.00;100945.03;5054913;28;20044;-79
2023/02/22 05:50:06;;;;;;;26.90;24.60;;;;;;;8.36;100.00;100939.63;5059768;28;20053;-78
2023/02/22 05:52:33;;;;;;;30.60;27.30;;;;;;;8.46;100.00;100950.75;5061429;28;20472;-79
2023/02/22 05:55:00;;;;;;;30.00;27.17;;;;;;;8.49;100.00;100958.31;5058753;28;20469;-79
2023/02/22 05:57:27;;;;;;;31.20;28.25;;;;;;;8.64;100.00;100954.81;5061658;28;20056;-79
2023/02/22 05:59:54;;;;;;;27.08;24.88;;;;;;;8.81;100.00;100948.28;5061143;28;20105;-79
2023/02/22 06:02:22;;;;;;;28.23;25.98;;;;;;;8.89;100.00;100948.16;5051371;28;20049;-78
2023/02/22 06:04:49;;;;;;;24.80;22.80;;;;;;;9.04;100.00;100957.88;5061423;28;20076;-79
2023/02/22 06:07:15;;;;;;;25.42;23.15;;;;;;;9.19;100.00;100958.59;5058207;28;20048;-79
2023/02/22 06:09:42;;;;;;;25.02;22.85;;;;;;;9.25;100.00;100964.97;5054581;28;20044;-79
2023/02/22 06:12:10;;;;;;;30.15;26.98;;;;;;;9.42;100.00;100974.31;5061371;28;20037;-78
2023/02/22 06:14:37;;;;;;;29.25;26.48;;;;;;;9.59;100.00;100969.53;5060958;28;20113;-79
2023/02/22 06:17:05;;;;;;;27.10;24.77;;;;;;;9.75;100.00;100968.44;5061272;28;20056;-79
2023/02/22 06:19:33;;;;;;;27.65;25.42;;;;;;;9.90;100.00;100973.63;5061998;28;20044;-79
2023/02/22 06:22:01;;;;;;;27.27;25.08;;;;;;;9.94;100.00;100981.00;5060680;28;20056;-79
2023/02/22 06:24:28;;;;;;;26.27;24.23;;;;;;;10.07;100.00;100977.59;5062173;28;20052;-79
2023/02/22 06:26:55;;;;;;;26.48;24.13;;;;;;;10.13;100.00;100984.75;5061412;28;20041;-79
2023/02/22 06:29:22;;;;;;;28.10;25.85;;;;;;;10.30;100.00;100980.81;5062761;28;20058;-78
2023/02/22 06:31:49;;;;;;;26.08;23.98;;;;;;;10.47;100.00;100980.47;5062339;28;20395;-78
2023/02/22 06:34:16;;;;;;;26.15;24.20;;;;;;;10.69;100.00;100987.28;5061643;28;20049;-79
2023/02/22 06:36:46;;;;;;;26.92;24.92;;;;;;;10.77;100.00;100999.56;5061014;28;20040;-79
2023/02/22 06:39:15;;;;;;;28.15;26.08;;;;;;;10.95;100.00;100991.00;5061272;28;20489;-79
2023/02/22 06:41:42;;;;;;;27.83;25.70;;;;;;;10.96;100.00;101000.66;5062832;28;20083;-79
2023/02/22 06:44:10;;;;;;;27.77;25.67;;;;;;;10.69;100.00;101000.56;5062511;28;20041;-79
2023/02/22 06:46:37;;;;;;;24.77;22.77;;;;;;;11.00;100.00;100993.91;5062218;28;20068;-79
2023/02/22 06:49:05;;;;;;;25.70;23.27;;;;;;;11.11;100.00;100990.66;5060896;28;20057;-79
2023/02/22 06:51:36;;;;;;;26.50;24.30;;;;;;;11.09;100.00;100997.19;5060655;28;20036;-79
2023/02/22 06:54:04;;;;;;;27.20;25.20;;;;;;;10.95;100.00;101005.16;5061378;28;20055;-79
2023/02/22 06:56:31;;;;;;;26.85;24.95;;;;;;;11.10;100.00;101012.09;5062517;28;20057;-79
2023/02/22 06:59:00;;;;;;;24.30;22.15;;;;;;;11.55;100.00;101007.03;5062389;28;20041;-78
2023/02/22 07:01:27;;;;;;;25.33;23.52;;;;;;;11.73;100.00;101006.41;5061980;28;20063;-79
2023/02/22 07:03:54;;;;;;;27.70;25.40;;;;;;;12.06;100.00;100999.22;5060999;28;20053;-79
2023/02/22 07:06:21;;;;;;;25.55;23.55;;;;;;;11.55;100.00;101005.19;5061121;28;20059;-79
2023/02/22 07:08:48;;;;;;;27.40;25.10;;;;;;;11.35;100.00;100999.88;5060999;28;20045;-79
2023/02/22 07:11:17;;;;;;;25.33;23.23;;;;;;;11.06;100.00;100995.75;5058248;28;20061;-79
2023/02/22 07:13:44;;;;;;;27.08;24.98;;;;;;;11.27;100.00;100989.44;5048745;28;20053;-77
2023/02/22 07:16:11;;;;;;;27.63;25.48;;;;;;;11.81;100.00;100992.91;5049920;28;20056;-79
2023/02/22 07:18:38;;;;;;;26.02;24.17;;;;;;;11.90;100.00;100999.66;5052208;28;20037;-79
2023/02/22 07:21:06;;;;;;;25.63;23.65;;;;;;;11.86;100.00;100993.94;5059338;28;20107;-79
2023/02/22 07:23:33;;;;;;;26.88;24.77;;;;;;;11.59;100.00;100993.13;5052540;28;20048;-77
2023/02/22 07:26:01;;;;;;;25.70;23.55;;;;;;;11.55;100.00;100999.03;5052290;28;20560;-79
2023/02/22 07:28:29;;;;;;;27.70;25.50;;;;;;;11.48;100.00;101006.22;5060592;28;20045;-79
2023/02/22 07:30:56;;;;;;;26.02;23.92;;;;;;;11.70;100.00;101004.97;5061249;28;20048;-79
2023/02/22 07:33:23;;;;;;;27.65;25.52;;;;;;;11.54;100.00;101000.09;5063165;28;20110;-79
2023/02/22 07:35:51;;;;;;;28.40;26.20;;;;;;;11.76;100.00;101008.66;5060818;28;20048;-79
2023/02/22 07:38:19;;;;;;;27.77;25.67;;;;;;;11.40;100.00;101005.38;5060977;28;20041;-79
2023/02/22 07:40:46;;;;;;;28.50;26.15;;;;;;;12.48;100.00;100999.69;5061283;28;20500;-79
2023/02/22 07:43:16;;;;;;;28.08;25.85;;;;;;;12.09;100.00;101001.44;5062533;28;20045;-79
2023/02/22 07:45:45;;;;;;;28.00;25.42;;;;;;;11.47;100.00;101002.75;5059442;28;20071;-79
2023/02/22 07:48:13;;;;;;;30.85;28.20;;;;;;;12.57;100.00;100998.41;5060442;28;20102;-78
2023/02/22 07:50:41;;;;;;;28.55;26.00;;;;;;;11.46;100.00;101004.56;5061550;28;20071;-79
2023/02/22 07:53:11;;;;;;;27.08;24.80;;;;;;;12.42;100.00;100999.72;5063126;28;20395;-79
2023/02/22 07:55:38;;;;;;;27.00;24.67;;;;;;;12.24;100.00;101001.22;5062343;28;20095;-79
2023/02/22 07:58:07;;;;;;;29.25;26.17;;;;;;;12.37;100.00;101006.50;5061892;28;20049;-79
2023/02/22 08:00:38;;;;;;;28.45;25.70;;;;;;;13.43;100.00;101017.59;5058456;28;20049;-79
2023/02/22 08:03:08;;;;;;;29.08;26.60;;;;;;;13.18;100.00;101004.22;5061386;28;20067;-79
2023/02/22 08:05:38;;;;;;;26.48;24.08;;;;;;;13.13;100.00;101012.03;5061043;28;20517;-78
2023/02/22 08:08:06;;;;;;;28.23;25.85;;;;;;;12.49;100.00;101008.50;5061820;28;20091;-79
2023/02/22 08:10:33;;;;;;;28.65;26.25;;;;;;;12.07;100.00;101014.19;5060551;28;20044;-79
2023/02/22 08:13:01;;;;;;;26.58;24.25;;;;;;;12.12;100.00;101003.69;5058584;28;20049;-78
2023/02/22 08:15:30;;;;;;;27.20;24.80;;;;;;;13.52;100.00;101008.28;5062466;28;20049;-79
2023/02/22 08:17:58;;;;;;;24.90;22.73;;;;;;;12.77;100.00;101001.00;5061140;28;20057;-79
2023/02/22 08:20:26;;;;;;;26.02;23.73;;;;;;;13.21;100.00;101004.59;5061157;28;20473;-79
2023/02/22 08:22:53;;;;;;;26.17;24.15;;;;;;;13.53;100.00;101001.94;5060527;28;20053;-79
2023/02/22 08:25:22;;;;;;;25.73;23.40;;;;;;;12.90;100.00;100997.44;5061765;28;20044;-79
2023/02/22 08:27:49;;;;;;;24.70;22.40;;;;;;;12.87;100.00;100997.88;5060592;28;20064;-79
2023/02/22 08:30:18;;;;;;;26.02;23.92;;;;;;;12.99;100.00;100998.81;5060566;28;20036;-79
2023/02/22 08:32:45;;;;;;;26.05;23.50;;;;;;;13.51;100.00;101001.34;5060753;28;20073;-79
2023/02/22 08:35:13;;;;;;;25.35;23.20;;;;;;;13.12;100.00;101005.09;5060344;28;20059;-79
2023/02/22 08:37:44;;;;;;;24.48;22.33;;;;;;;12.78;100.00;101002.63;5062521;28;20052;-79
2023/02/22 08:40:12;;;;;;;25.00;22.90;;;;;;;13.48;100.00;101007.09;5055439;28;20054;-79
2023/02/22 08:42:39;;;;;;;27.40;25.27;;;;;;;13.98;100.00;101004.41;5050366;28;20399;-79
2023/02/22 08:45:06;;;;;;;26.02;23.90;;;;;;;14.02;100.00;100999.44;5061079;28;20045;-79
2023/02/22 08:47:33;;;;;;;27.48;25.48;;;;;;;14.06;99.89;101001.41;5059990;28;20564;-79
2023/02/22 08:50:00;;;;;;;24.98;22.90;;;;;;;13.88;97.72;101009.41;5059843;28;20057;-79
2023/02/22 08:52:27;;;;;;;25.80;23.80;;;;;;;14.77;97.70;100997.31;5060271;28;20119;-78
2023/02/22 08:54:56;;;;;;;25.92;23.92;;;;;;;13.79;100.00;100997.38;5056526;28;20118;-79
2023/02/22 08:57:23;;;;;;;26.42;24.33;;;;;;;13.36;100.00;100990.16;5059670;28;20045;-79
2023/02/22 08:59:49;;;;;;;26.90;24.80;;;;;;;14.48;100.00;100992.72;5058612;28;20049;-79
2023/02/22 09:02:19;;;;;;;25.17;23.38;;;;;;;13.80;100.00;100993.66;5058478;28;20048;-79
2023/02/22 09:04:47;;;;;;;27.50;25.25;;;;;;;13.92;100.00;100991.94;5061205;28;20074;-79
2023/02/22 09:07:14;;;;;;;25.45;23.52;;;;;;;13.48;100.00;100993.78;5062459;28;20045;-79
2023/02/22 09:09:42;;;;;;;30.75;28.45;;;;;;;14.13;100.00;100993.31;5062106;28;20111;-79
2023/02/22 09:12:10;;;;;;;29.48;27.17;;;;;;;15.23;96.75;100990.47;5061554;28;20056;-78
2023/02/22 09:14:37;;;;;;;31.35;28.95;;;;;;;14.87;97.43;100992.22;5065425;28;20482;-79
2023/02/22 09:17:04;;;;;;;29.67;27.45;;;;;;;16.53;93.79;100993.88;5065759;28;20049;-79
2023/02/22 09:19:31;;;;;;;26.92;24.73;;;;;;;15.95;93.41;100984.94;5065135;28;20079;-79
2023/02/22 09:21:59;;;;;;;29.25;27.05;;;;;;;16.38;91.42;100985.56;5063501;28;20055;-79
2023/02/22 09:24:26;;;;;;;26.55;24.58;;;;;;;14.63;91.10;100985.16;5064799;28;20045;-79
2023/02/22 09:26:53;;;;;;;27.17;25.02;;;;;;;15.18;93.75;100992.19;5065643;28;20044;-79
2023/02/22 09:29:23;;;;;;;26.92;24.85;;;;;;;17.49;89.12;100993.16;5064420;28;20041;-79
2023/02/22 09:31:52;;;;;;;29.98;27.73;;;;;;;17.32;87.11;100990.47;5065540;28;20048;-79
2023/02/22 09:34:21;;;;;;;27.50;25.40;;;;;;;15.67;86.29;100992.81;5067331;28;20056;-79
2023/02/22 09:36:49;;;;;;;28.02;25.85;;;;;;;14.84;86.69;100987.34;5065213;28;20132;-79
2023/02/22 09:39:17;;;;;;;29.75;27.55;;;;;;;15.45;91.77;100982.69;5065179;28;20103;-79
2023/02/22 09:41:51;;;;;;;30.10;27.70;;;;;;;15.73;94.20;100986.56;5065478;28;20037;-79
2023/02/22 09:44:26;;;;;;;27.73;25.90;;;;;;;14.81;97.36;100982.44;5065486;28;20056;-79
2023/02/22 09:46:55;;;;;;;27.77;25.88;;;;;;;17.64;85.94;100982.66;5066115;28;20472;-79
2023/02/22 09:49:25;;;;;;;29.48;27.27;;;;;;;17.22;82.98;100983.09;5065382;28;20049;-79
2023/02/22 09:51:58;;;;;;;29.65;27.05;;;;;;;17.84;79.06;100985.66;5063907;28;20064;-79
2023/02/22 09:54:33;;;;;;;27.52;25.42;;;;;;;16.34;84.68;100982.53;5065248;28;20045;-79
2023/02/22 09:57:04;;;;;;;31.10;28.70;;;;;;;17.38;83.83;100981.44;5065687;28;20136;-79
2023/02/22 09:59:39;;;;;;;29.25;27.15;;;;;;;15.94;81.22;100977.94;5056533;28;20056;-79
2023/02/22 10:02:21;;;;;;;29.00;26.67;;;;;;;18.47;81.71;100980.81;5063614;28;20525;-79
2023/02/22 10:04:52;;;;;;;28.42;26.15;;;;;;;16.97;85.39;100988.81;5065933;28;20506;-79
2023/02/22 10:07:26;;;;;;;27.17;25.07;;;;;;;17.47;85.45;100988.03;5065340;28;20059;-79
2023/02/22 10:09:56;;;;;;;26.17;23.98;;;;;;;17.27;75.44;100988.50;5064537;28;20502;-79
2023/02/22 10:12:30;;;;;;;27.58;25.35;;;;;;;14.73;83.33;100982.75;5064632;28;20079;-79
2023/02/22 10:15:33;;;;;;;25.13;22.83;;;;;;;17.20;80.34;100990.56;5063975;28;20064;-79
2023/02/22 10:18:19;;;;;;;24.95;22.90;;;;;;;16.17;84.38;100978.97;5010582;28;20059;-79
2023/02/22 10:20:54;;;;;;;27.08;24.75;;;;;;;15.81;81.37;100983.53;5064498;28;20056;-79
2023/02/22 10:23:30;;;;;;;27.02;24.63;;;;;;;16.71;82.14;100971.44;5065139;28;20045;-79
2023/02/22 10:26:08;;;;;;;25.77;23.38;;;;;;;19.15;76.93;100977.72;5064650;28;20045;-79
2023/02/22 10:28:41;;;;;;;27.23;25.02;;;;;;;19.77;74.47;100969.03;5062928;28;20049;-79
2023/02/22 10:31:19;;;;;;;25.48;23.27;;;;;;;19.16;71.17;100969.41;5062326;28;20079;-79
2023/02/22 10:33:52;;;;;;;25.42;23.15;;;;;;;17.66;75.29;100972.47;5061768;28;20079;-79
2023/02/22 10:36:21;;;;;;;25.92;23.60;;;;;;;18.17;75.57;100962.44;5041167;28;20050;-79
2023/02/22 10:38:53;;;;;;;27.25;25.05;;;;;;;18.27;73.57;100953.66;5064028;28;20041;-78
2023/02/22 10:41:27;;;;;;;27.48;25.42;;;;;;;18.81;76.36;100948.34;5064348;28;20073;-79
2023/02/22 10:43:54;;;;;;;29.10;26.75;;;;;;;20.26;67.98;100949.03;5058232;28;20049;-79
2023/02/22 10:46:23;;;;;;;26.08;24.02;;;;;;;18.60;76.19;100941.94;5064816;28;20124;-79
2023/02/22 10:48:54;;;;;;;25.38;23.08;;;;;;;19.82;67.66;100944.00;5063316;28;20074;-79
2023/02/22 10:51:21;;;;;;;26.02;23.73;;;;;;;17.99;70.48;100942.06;5062049;28;20065;-79
2023/02/22 10:53:59;;;;;;;28.33;26.13;;;;;;;19.80;72.93;100930.78;5062715;28;20060;-79
2023/02/22 10:56:28;;;;;;;25.98;23.77;;;;;;;19.20;72.11;100937.38;5063610;28;20055;-79
2023/02/22 10:58:58;;;;;;;25.73;23.45;;;;;;;19.45;67.46;100934.03;5064524;28;20041;-79
2023/02/22 11:01:35;;;;;;;29.35;27.08;;;;;;;18.64;68.50;100926.09;5064258;28;20076;-79
2023/02/22 11:04:10;;;;;;;25.05;23.05;;;;;;;17.09;72.92;100935.09;5062505;28;20055;-79
2023/02/22 11:06:38;;;;;;;27.30;25.15;;;;;;;17.44;73.45;100936.72;5063530;28;20044;-79
2023/02/22 11:09:10;;;;;;;26.05;24.05;;;;;;;18.42;69.34;100920.75;5063238;28;20053;-79
2023/02/22 11:11:38;;;;;;;27.05;24.85;;;;;;;20.00;71.29;100922.00;5062808;28;20585;-79
2023/02/22 11:14:06;;;;;;;27.88;25.67;;;;;;;20.56;60.93;100915.97;5061378;28;20064;-79
2023/02/22 11:16:36;;;;;;;29.35;27.15;;;;;;;17.97;69.47;100922.69;5062898;28;20239;-79
2023/02/22 11:19:19;;;;;;;30.80;28.80;;;;;;;19.55;67.81;100917.97;5061310;28;20478;-79
2023/02/22 11:21:47;;;;;;;29.20;27.02;;;;;;;18.95;65.40;100913.78;5062607;28;20041;-79